Time;durP1;ratioP1;P1;durP2;ratioP2;P2;SDS_P1;SDS_P2;PMS_P1;PMS_P2;Temp;Humidity;BMP_temperature;BMP_pressure;BME280_temperature;BME280_humidity;BME280_pressure;Samples;Min_cycle;Max_cycle;Signal;HPM_P1;HPM_P2
2023/07/06 00:00:51;;;;;;;10.77;5.95;;;;;;;14.04;92.50;101439.47;4989776;28;20074;-70
2023/07/06 00:03:17;;;;;;;10.63;6.18;;;;;;;14.08;91.51;101442.81;4990617;28;20034;-70
2023/07/06 00:05:46;;;;;;;14.20;6.38;;;;;;;14.05;92.35;101438.47;4989807;28;20053;-69
2023/07/06 00:08:13;;;;;;;16.70;6.57;;;;;;;14.02;91.35;101445.03;4987940;28;20049;-69
2023/07/06 00:10:41;;;;;;;11.68;6.53;;;;;;;13.95;92.85;101432.81;4989734;28;20454;-69
2023/07/06 00:13:07;;;;;;;11.68;6.03;;;;;;;13.93;92.11;101442.13;5004221;28;20033;-70
2023/07/06 00:15:34;;;;;;;9.32;5.80;;;;;;;13.91;92.03;101445.00;4989581;28;20376;-69
2023/07/06 00:18:03;;;;;;;8.40;4.68;;;;;;;13.87;91.39;101440.75;4990039;28;20037;-70
2023/07/06 00:20:29;;;;;;;12.63;6.28;;;;;;;13.79;92.14;101435.84;4989561;28;20141;-70
2023/07/06 00:22:55;;;;;;;14.98;6.22;;;;;;;13.76;92.25;101452.53;4989036;28;20399;-70
2023/07/06 00:25:21;;;;;;;10.30;5.50;;;;;;;13.72;91.57;101447.41;4988951;28;20100;-70
2023/07/06 00:27:47;;;;;;;9.13;5.45;;;;;;;13.65;91.43;101444.25;4989914;28;20014;-70
2023/07/06 00:30:18;;;;;;;7.93;5.13;;;;;;;13.66;91.04;101440.53;5003417;28;20512;-70
2023/07/06 00:32:47;;;;;;;7.05;4.57;;;;;;;13.61;90.20;101444.59;5009378;28;20442;-70
2023/07/06 00:35:15;;;;;;;8.32;5.75;;;;;;;13.55;91.05;101436.84;5003121;28;20034;-70
2023/07/06 00:37:41;;;;;;;10.40;5.03;;;;;;;13.49;91.39;101444.53;4988202;28;20043;-70
2023/07/06 00:40:13;;;;;;;8.88;5.28;;;;;;;13.47;91.21;101445.63;4988614;28;20482;-70
2023/07/06 00:42:39;;;;;;;9.55;4.82;;;;;;;13.41;91.28;101441.50;4989428;28;20651;-70
2023/07/06 00:45:08;;;;;;;12.35;5.55;;;;;;;13.39;91.59;101443.47;5004077;28;20030;-70
2023/07/06 00:47:39;;;;;;;8.73;4.55;;;;;;;13.35;90.93;101450.16;4988634;28;20050;-70
2023/07/06 00:50:11;;;;;;;7.70;4.30;;;;;;;13.37;91.71;101453.63;5004889;28;20544;-70
2023/07/06 00:52:48;;;;;;;6.28;4.07;;;;;;;13.37;91.50;101452.78;4988498;28;20402;-70
2023/07/06 00:55:16;;;;;;;7.85;4.32;;;;;;;13.33;91.92;101443.06;5003073;28;20061;-70
2023/07/06 00:57:44;;;;;;;8.05;4.38;;;;;;;13.33;91.41;101451.25;4988902;28;20386;-70
2023/07/06 01:00:12;;;;;;;10.15;4.70;;;;;;;13.27;91.40;101439.78;5003601;28;20108;-70
2023/07/06 01:02:40;;;;;;;9.23;4.35;;;;;;;13.26;90.95;101451.72;4989002;28;20045;-70
2023/07/06 01:05:08;;;;;;;10.32;4.40;;;;;;;13.23;91.32;101445.59;4988476;28;20076;-70
2023/07/06 01:07:37;;;;;;;8.80;4.22;;;;;;;13.15;91.29;101448.88;4987970;28;20026;-70
2023/07/06 01:10:05;;;;;;;7.93;4.72;;;;;;;13.17;90.66;101444.16;4987843;28;20062;-70
2023/07/06 01:12:31;;;;;;;7.03;4.00;;;;;;;13.16;91.32;101441.56;4987187;28;20042;-70
2023/07/06 01:14:56;;;;;;;11.25;4.63;;;;;;;13.17;90.96;101446.03;5003420;28;20316;-70
2023/07/06 01:17:29;;;;;;;11.70;4.55;;;;;;;13.09;91.17;101438.38;4988461;28;20501;-70
2023/07/06 01:20:25;;;;;;;11.57;4.53;;;;;;;13.08;90.93;101444.84;4988404;28;20156;-70
2023/07/06 01:23:28;;;;;;;10.10;4.25;;;;;;;13.06;91.09;101446.81;4987980;28;20043;-70
2023/07/06 01:26:09;;;;;;;9.10;4.40;;;;;;;12.97;90.85;101451.09;5002416;28;20359;-70
2023/07/06 01:29:04;;;;;;;8.10;3.95;;;;;;;12.93;91.14;101448.69;5002589;28;20388;-70
2023/07/06 01:31:39;;;;;;;6.65;4.03;;;;;;;12.87;91.36;101451.84;4988134;28;20044;-70
2023/07/06 01:34:07;;;;;;;9.80;4.03;;;;;;;12.82;91.51;101451.31;4988728;28;20121;-70
2023/07/06 01:36:46;;;;;;;10.07;3.60;;;;;;;12.72;91.54;101441.06;4988080;28;20360;-70
2023/07/06 01:39:20;;;;;;;6.70;3.80;;;;;;;12.74;91.02;101447.31;5002091;28;20160;-70
2023/07/06 01:42:01;;;;;;;9.70;4.00;;;;;;;12.71;90.87;101444.78;4988130;28;20042;-70
2023/07/06 01:44:27;;;;;;;6.50;3.90;;;;;;;12.68;91.15;101444.13;5002688;28;20149;-70
2023/07/06 01:46:53;;;;;;;8.05;3.75;;;;;;;12.66;91.45;101448.84;4987960;28;20118;-70
2023/07/06 01:49:19;;;;;;;7.22;3.30;;;;;;;12.63;91.64;101441.72;5003291;28;20034;-70
2023/07/06 01:52:09;;;;;;;7.28;3.95;;;;;;;12.61;91.16;101446.44;4990072;28;20026;-70
2023/07/06 01:54:44;;;;;;;9.82;3.55;;;;;;;12.55;91.60;101443.28;5002121;28;20034;-70
2023/07/06 01:57:24;;;;;;;8.60;4.38;;;;;;;12.52;91.60;101447.09;4988023;28;20101;-70
2023/07/06 01:59:53;;;;;;;7.88;4.18;;;;;;;12.44;92.91;101453.06;5022090;28;20433;-70
2023/07/06 02:02:20;;;;;;;7.50;3.70;;;;;;;12.42;92.84;101444.13;5007259;28;20462;-70
2023/07/06 02:04:46;;;;;;;7.07;3.55;;;;;;;12.40;92.18;101448.84;4988432;28;20426;-70
2023/07/06 02:07:16;;;;;;;7.20;3.60;;;;;;;12.36;92.21;101454.63;5001789;28;20034;-70
2023/07/06 02:09:43;;;;;;;5.07;3.55;;;;;;;12.34;92.26;101449.25;5002266;28;20041;-70
2023/07/06 02:12:10;;;;;;;10.00;3.60;;;;;;;12.32;92.82;101462.13;5002060;28;20100;-70
2023/07/06 02:14:35;;;;;;;8.38;4.30;;;;;;;12.30;92.52;101452.31;4987836;28;20046;-70
2023/07/06 02:17:00;;;;;;;8.43;3.25;;;;;;;12.27;92.87;101463.44;5002458;28;20030;-70
2023/07/06 02:19:26;;;;;;;11.32;3.92;;;;;;;12.24;93.24;101450.88;5002346;28;20078;-70
2023/07/06 02:21:51;;;;;;;15.82;3.88;;;;;;;12.19;93.38;101445.75;5001460;28;20080;-69
2023/07/06 02:24:17;;;;;;;10.18;4.28;;;;;;;12.16;93.97;101447.81;4987553;28;20089;-70
2023/07/06 02:26:44;;;;;;;8.40;3.35;;;;;;;12.13;93.04;101443.44;4986856;28;20050;-70
2023/07/06 02:29:09;;;;;;;7.82;3.58;;;;;;;12.12;94.36;101447.13;4987720;28;20046;-70
2023/07/06 02:31:35;;;;;;;8.48;3.45;;;;;;;12.09;93.75;101443.78;5002188;28;20050;-70
2023/07/06 02:34:01;;;;;;;10.52;3.47;;;;;;;12.08;94.49;101440.19;4987788;28;20092;-70
2023/07/06 02:36:26;;;;;;;13.95;3.83;;;;;;;12.03;94.17;101436.91;5001465;28;20101;-70
2023/07/06 02:38:52;;;;;;;7.28;3.72;;;;;;;12.01;94.42;101436.09;4986863;28;20046;-70
2023/07/06 02:41:18;;;;;;;6.80;3.58;;;;;;;12.00;94.81;101440.69;4987000;28;20569;-70
2023/07/06 02:43:43;;;;;;;13.40;3.38;;;;;;;12.03;95.08;101445.06;4985822;28;20343;-70
2023/07/06 02:46:09;;;;;;;6.72;3.30;;;;;;;12.02;95.08;101442.44;4987281;28;20035;-71
2023/07/06 02:48:34;;;;;;;10.20;3.53;;;;;;;12.09;94.11;101449.22;4994611;28;20030;-70
2023/07/06 02:51:00;;;;;;;9.43;3.92;;;;;;;12.09;94.60;101441.91;4995461;28;20031;-70
2023/07/06 02:53:27;;;;;;;7.18;3.75;;;;;;;12.09;94.94;101450.09;5001606;28;20056;-70
2023/07/06 02:55:52;;;;;;;8.52;3.63;;;;;;;12.12;94.87;101451.72;5001078;28;20062;-70
2023/07/06 02:58:18;;;;;;;13.52;4.47;;;;;;;12.12;95.31;101451.72;5002532;28;20038;-70
2023/07/06 03:00:47;;;;;;;9.45;3.40;;;;;;;12.10;95.69;101451.84;4988056;28;20034;-71
2023/07/06 03:03:12;;;;;;;8.15;3.38;;;;;;;12.10;95.65;101448.25;4987146;28;20081;-70
2023/07/06 03:05:37;;;;;;;7.00;3.45;;;;;;;12.10;95.73;101453.69;4987175;28;20070;-70
2023/07/06 03:08:05;;;;;;;8.30;3.55;;;;;;;12.10;95.52;101454.56;5002106;28;20490;-70
2023/07/06 03:10:31;;;;;;;12.10;4.22;;;;;;;12.10;95.12;101446.38;4986362;28;20042;-71
2023/07/06 03:12:57;;;;;;;9.80;3.85;;;;;;;12.17;95.52;101457.72;5002137;28;20041;-70
2023/07/06 03:15:23;;;;;;;10.77;3.38;;;;;;;12.18;94.79;101454.03;5002035;28;20502;-70
2023/07/06 03:17:51;;;;;;;8.57;3.25;;;;;;;12.19;95.05;101451.19;5004328;28;20487;-70
2023/07/06 03:20:21;;;;;;;10.27;3.45;;;;;;;12.18;95.81;101454.91;5005519;28;20104;-70
2023/07/06 03:22:51;;;;;;;8.85;4.18;;;;;;;12.16;95.77;101451.41;5005720;28;20061;-71
2023/07/06 03:25:18;;;;;;;11.63;4.10;;;;;;;12.17;95.94;101461.34;4991178;28;20427;-71
2023/07/06 03:27:46;;;;;;;11.70;3.92;;;;;;;12.18;96.04;101459.50;5005659;28;20018;-71
2023/07/06 03:30:13;;;;;;;12.00;4.07;;;;;;;12.18;95.63;101470.41;4990405;28;20065;-71
2023/07/06 03:32:39;;;;;;;13.10;4.30;;;;;;;12.19;94.85;101470.28;4990416;28;20038;-71
2023/07/06 03:35:06;;;;;;;8.77;4.30;;;;;;;12.22;95.10;101466.50;5005443;28;20930;-70
2023/07/06 03:37:32;;;;;;;9.18;3.47;;;;;;;12.21;95.73;101468.31;4989424;28;20046;-70
2023/07/06 03:39:57;;;;;;;11.18;3.92;;;;;;;12.24;95.41;101469.97;4990067;28;20099;-71
2023/07/06 03:42:23;;;;;;;8.43;3.47;;;;;;;12.27;95.63;101471.63;4990315;28;20026;-71
2023/07/06 03:44:48;;;;;;;7.40;4.53;;;;;;;12.28;95.08;101476.97;5023849;28;20068;-70
2023/07/06 03:47:14;;;;;;;11.23;3.25;;;;;;;12.31;95.49;101481.31;5008074;28;20034;-70
2023/07/06 03:49:40;;;;;;;9.35;3.30;;;;;;;12.31;94.52;101487.69;4991167;28;20478;-71
2023/07/06 03:52:06;;;;;;;8.43;4.18;;;;;;;12.31;95.57;101479.50;4989725;28;20070;-71
2023/07/06 03:54:33;;;;;;;12.93;4.35;;;;;;;12.31;95.43;101481.31;4989470;28;20149;-71
2023/07/06 03:56:58;;;;;;;14.65;4.20;;;;;;;12.31;95.41;101486.78;4990164;28;20070;-71
2023/07/06 03:59:24;;;;;;;13.80;3.97;;;;;;;12.31;95.68;101489.50;4990487;28;20057;-71
2023/07/06 04:01:49;;;;;;;11.18;4.07;;;;;;;12.28;95.60;101487.88;4989808;28;20466;-71
2023/07/06 04:04:16;;;;;;;13.32;4.35;;;;;;;12.29;95.99;101494.22;4990949;28;20385;-71
2023/07/06 04:06:41;;;;;;;10.85;4.20;;;;;;;12.27;95.74;101496.19;4989253;28;20169;-71
2023/07/06 04:09:10;;;;;;;12.18;3.70;;;;;;;12.29;95.60;101502.41;4989913;28;20113;-71
2023/07/06 04:11:36;;;;;;;8.27;3.65;;;;;;;12.29;95.18;101489.63;4989431;28;20046;-71
2023/07/06 04:14:03;;;;;;;8.73;3.60;;;;;;;12.34;95.36;101502.94;4990006;28;20176;-71
2023/07/06 04:16:29;;;;;;;15.27;4.25;;;;;;;12.34;95.84;101498.38;4989487;28;20049;-70
2023/07/06 04:18:55;;;;;;;8.95;3.88;;;;;;;12.39;95.72;101501.66;4989464;28;20034;-71
2023/07/06 04:21:24;;;;;;;12.23;4.32;;;;;;;12.44;95.62;101498.59;4987887;28;20125;-71
2023/07/06 04:23:50;;;;;;;7.25;4.13;;;;;;;12.48;94.50;101500.13;5004178;28;20038;-70
2023/07/06 04:26:17;;;;;;;9.25;4.20;;;;;;;12.49;95.31;101507.34;4989350;28;20050;-70
2023/07/06 04:28:42;;;;;;;7.90;3.70;;;;;;;12.51;95.25;101503.53;4996450;28;20479;-70
2023/07/06 04:31:10;;;;;;;10.85;5.43;;;;;;;12.50;95.59;101504.53;4989279;28;20045;-71
2023/07/06 04:33:36;;;;;;;8.55;4.22;;;;;;;12.51;95.27;101505.38;4989170;28;20050;-70
2023/07/06 04:36:02;;;;;;;12.85;4.18;;;;;;;12.51;94.51;101502.66;4989726;28;20038;-71
2023/07/06 04:38:29;;;;;;;12.15;3.97;;;;;;;12.57;95.00;101504.94;4988567;28;20129;-71
2023/07/06 04:40:55;;;;;;;13.25;4.22;;;;;;;12.61;95.14;101511.94;4988509;28;20041;-70
2023/07/06 04:43:22;;;;;;;9.18;4.35;;;;;;;12.60;94.95;101514.78;4989115;28;20038;-70
2023/07/06 04:45:47;;;;;;;10.35;4.63;;;;;;;12.63;94.63;101520.00;4989579;28;20406;-70
2023/07/06 04:48:14;;;;;;;10.50;4.22;;;;;;;12.66;94.76;101525.28;4988590;28;20034;-70
2023/07/06 04:50:40;;;;;;;10.48;4.55;;;;;;;12.65;95.72;101518.06;4988501;28;20375;-71
2023/07/06 04:53:07;;;;;;;11.02;5.05;;;;;;;12.70;94.87;101527.69;4988589;28;20124;-71
2023/07/06 04:55:33;;;;;;;10.25;4.35;;;;;;;12.75;95.08;101524.63;5003526;28;20325;-73
2023/07/06 04:58:00;;;;;;;10.52;4.47;;;;;;;12.82;94.81;101517.72;4989097;28;20049;-71
2023/07/06 05:00:31;;;;;;;16.00;5.72;;;;;;;12.83;94.84;101519.50;4989075;28;20176;-70
2023/07/06 05:03:03;;;;;;;15.27;5.25;;;;;;;12.95;95.10;101518.59;5003595;28;20034;-71
2023/07/06 05:05:32;;;;;;;12.45;5.40;;;;;;;13.06;95.05;101530.63;4988972;28;20096;-71
2023/07/06 05:07:58;;;;;;;11.82;5.10;;;;;;;13.11;93.92;101525.72;4988134;28;20050;-70
2023/07/06 05:10:26;;;;;;;13.50;5.10;;;;;;;13.18;94.31;101532.47;5002754;28;20068;-70
2023/07/06 05:12:52;;;;;;;16.75;6.05;;;;;;;13.21;94.67;101535.00;4988768;28;20038;-70
2023/07/06 05:15:19;;;;;;;12.90;4.97;;;;;;;13.26;93.61;101522.75;4989261;28;20427;-71
2023/07/06 05:17:44;;;;;;;14.82;5.32;;;;;;;13.37;94.01;101527.44;4988852;28;20454;-71
2023/07/06 05:20:14;;;;;;;11.98;5.03;;;;;;;13.47;93.52;101531.22;4986777;28;20161;-70
2023/07/06 05:22:41;;;;;;;17.00;6.25;;;;;;;13.53;94.31;101532.66;4987930;28;20478;-71
2023/07/06 05:25:10;;;;;;;15.35;5.95;;;;;;;13.60;93.54;101533.94;4987721;28;20035;-70
2023/07/06 05:27:36;;;;;;;18.50;6.53;;;;;;;13.68;93.79;101531.53;4988446;28;20108;-71
2023/07/06 05:30:03;;;;;;;16.30;7.13;;;;;;;13.73;93.70;101534.78;4988181;28;20455;-69
2023/07/06 05:32:28;;;;;;;16.45;7.45;;;;;;;13.77;93.25;101528.09;4988679;28;20105;-70
2023/07/06 05:34:54;;;;;;;15.02;6.72;;;;;;;13.84;93.37;101533.97;4988560;28;20109;-71
2023/07/06 05:37:20;;;;;;;22.35;7.72;;;;;;;13.96;93.59;101538.53;4987069;28;20038;-71
2023/07/06 05:39:46;;;;;;;16.23;7.55;;;;;;;14.07;93.01;101532.22;4987632;28;20057;-70
2023/07/06 05:42:13;;;;;;;20.38;8.05;;;;;;;14.13;91.40;101537.25;4987822;28;20398;-70
2023/07/06 05:44:38;;;;;;;22.17;7.40;;;;;;;14.21;93.25;101537.50;4988432;28;20042;-70
2023/07/06 05:47:04;;;;;;;25.85;8.77;;;;;;;14.31;93.10;101543.16;4988250;28;20038;-71
2023/07/06 05:49:30;;;;;;;18.90;7.88;;;;;;;14.41;92.93;101532.38;4987661;28;20120;-71
2023/07/06 05:51:55;;;;;;;19.35;7.35;;;;;;;14.56;91.53;101541.31;4987465;28;20086;-70
2023/07/06 05:54:21;;;;;;;19.92;8.18;;;;;;;14.62;91.99;101543.56;4987626;28;20034;-70
2023/07/06 05:56:48;;;;;;;19.70;8.07;;;;;;;14.71;90.76;101545.56;4987782;28;20141;-70
2023/07/06 05:59:15;;;;;;;23.02;7.38;;;;;;;14.80;90.70;101550.31;4988101;28;20046;-71
2023/07/06 06:01:40;;;;;;;21.00;7.85;;;;;;;14.84;90.22;101548.22;4988165;28;20092;-70
2023/07/06 06:04:06;;;;;;;18.83;8.30;;;;;;;14.90;88.73;101551.34;4988199;28;20042;-70
2023/07/06 06:06:50;;;;;;;19.17;7.43;;;;;;;14.92;88.72;101551.22;4987407;28;20062;-70
2023/07/06 06:09:15;;;;;;;24.08;8.38;;;;;;;14.97;89.07;101549.00;4987924;28;20434;-70
2023/07/06 06:11:41;;;;;;;18.10;8.52;;;;;;;15.00;87.67;101555.09;4987458;28;20061;-70
2023/07/06 06:14:07;;;;;;;22.88;8.23;;;;;;;14.96;88.36;101550.84;5002852;28;20030;-71
2023/07/06 06:16:35;;;;;;;19.50;7.78;;;;;;;14.90;88.70;101559.56;5002609;28;20065;-70
2023/07/06 06:19:02;;;;;;;18.42;7.65;;;;;;;14.84;89.26;101551.84;4987364;28;20042;-70
2023/07/06 06:21:29;;;;;;;20.05;7.95;;;;;;;14.84;89.40;101567.41;4987814;28;20042;-69
2023/07/06 06:23:57;;;;;;;21.73;8.07;;;;;;;14.80;90.25;101553.06;4987343;28;20038;-70
2023/07/06 06:26:23;;;;;;;19.33;8.48;;;;;;;14.78;89.73;101563.25;4986880;28;20049;-70
2023/07/06 06:28:49;;;;;;;19.58;8.85;;;;;;;14.71;89.60;101573.84;4988647;28;20045;-70
2023/07/06 06:31:14;;;;;;;16.08;8.13;;;;;;;14.75;90.01;101569.00;4987999;28;20379;-70
2023/07/06 06:33:40;;;;;;;19.38;8.50;;;;;;;14.82;90.18;101563.91;4996728;28;20045;-70
2023/07/06 06:36:07;;;;;;;20.48;9.25;;;;;;;14.84;89.92;101575.63;4996164;28;20097;-71
2023/07/06 06:38:34;;;;;;;21.27;9.88;;;;;;;14.95;90.45;101581.97;4986739;28;20581;-71
2023/07/06 06:41:02;;;;;;;23.30;9.25;;;;;;;15.06;91.17;101578.38;5001706;28;20084;-70
2023/07/06 06:43:28;;;;;;;25.20;9.60;;;;;;;15.26;90.90;101574.06;4987844;28;20038;-70
2023/07/06 06:45:53;;;;;;;20.65;10.68;;;;;;;15.44;91.67;101579.94;4987309;28;20523;-70
2023/07/06 06:48:20;;;;;;;22.77;11.05;;;;;;;15.54;89.88;101583.66;4990333;28;20027;-69
2023/07/06 06:50:45;;;;;;;26.80;10.60;;;;;;;15.67;89.31;101584.44;4988004;28;20410;-70
2023/07/06 06:53:11;;;;;;;22.15;12.00;;;;;;;15.77;88.50;101590.03;4990004;28;20030;-70
2023/07/06 06:55:37;;;;;;;26.17;11.30;;;;;;;15.81;88.03;101592.41;5009584;28;20121;-70
2023/07/06 06:58:03;;;;;;;25.42;12.10;;;;;;;15.91;87.19;101594.38;5004109;28;20064;-70
2023/07/06 07:00:28;;;;;;;21.98;12.07;;;;;;;15.89;87.04;101599.13;4991272;28;20053;-70
2023/07/06 07:02:53;;;;;;;25.35;12.32;;;;;;;15.93;85.96;101597.88;4991422;28;20027;-70
2023/07/06 07:05:20;;;;;;;19.05;11.02;;;;;;;16.08;87.56;101599.31;4990595;28;20026;-69
2023/07/06 07:07:45;;;;;;;26.60;12.10;;;;;;;16.18;85.42;101603.06;4991169;28;20037;-70
2023/07/06 07:10:11;;;;;;;22.92;12.10;;;;;;;16.15;86.82;101606.06;5005444;28;20490;-69
2023/07/06 07:12:38;;;;;;;24.73;11.18;;;;;;;16.25;86.45;101607.03;4991092;28;20430;-70
2023/07/06 07:15:04;;;;;;;24.52;11.55;;;;;;;16.39;85.80;101610.47;4989640;28;20034;-69
2023/07/06 07:17:30;;;;;;;20.45;11.68;;;;;;;16.52;84.80;101609.31;5005489;28;20092;-69
2023/07/06 07:19:55;;;;;;;23.98;11.20;;;;;;;16.65;85.43;101611.88;4991298;28;20042;-69
2023/07/06 07:22:21;;;;;;;20.80;10.82;;;;;;;16.83;83.62;101621.34;4990149;28;20038;-69
2023/07/06 07:24:47;;;;;;;22.08;11.38;;;;;;;17.06;84.56;101621.19;4990968;28;20034;-70
2023/07/06 07:27:12;;;;;;;27.35;12.48;;;;;;;17.15;85.26;101627.75;4990500;28;20100;-69
2023/07/06 07:29:40;;;;;;;22.92;12.25;;;;;;;17.27;83.80;101630.31;4989113;28;20771;-70
2023/07/06 07:32:06;;;;;;;26.25;14.32;;;;;;;17.31;85.11;101629.03;4990710;28;20038;-70
2023/07/06 07:34:32;;;;;;;25.27;12.90;;;;;;;17.46;84.09;101625.91;5005431;28;20537;-70
2023/07/06 07:36:58;;;;;;;27.38;14.50;;;;;;;17.46;81.85;101635.03;4989465;28;20366;-69
2023/07/06 07:39:23;;;;;;;27.23;13.77;;;;;;;17.55;83.67;101633.34;4989956;28;20042;-70
2023/07/06 07:41:48;;;;;;;26.33;15.13;;;;;;;17.61;81.01;101632.78;4990500;28;20588;-69
2023/07/06 07:44:15;;;;;;;22.83;13.25;;;;;;;17.71;81.01;101628.19;5005922;28;20044;-70
2023/07/06 07:46:41;;;;;;;24.40;12.85;;;;;;;17.71;81.50;101630.09;5005270;28;20036;-70
2023/07/06 07:49:07;;;;;;;24.98;10.77;;;;;;;17.81;81.65;101631.94;4988516;28;20124;-70
2023/07/06 07:51:32;;;;;;;23.95;11.90;;;;;;;17.91;79.72;101629.19;4993791;28;20058;-70
2023/07/06 07:53:57;;;;;;;23.83;12.18;;;;;;;18.03;80.46;101635.47;4989643;28;20096;-69
2023/07/06 07:56:24;;;;;;;26.83;11.90;;;;;;;18.14;80.61;101628.94;4990004;28;20030;-70
2023/07/06 07:58:50;;;;;;;21.27;10.30;;;;;;;18.31;77.26;101633.78;4990542;28;20042;-70
2023/07/06 08:01:21;;;;;;;28.40;10.80;;;;;;;18.48;80.13;101630.34;4990775;28;20092;-70
2023/07/06 08:03:47;;;;;;;17.65;10.27;;;;;;;18.76;78.20;101636.91;4990560;28;20443;-70
2023/07/06 08:06:14;;;;;;;18.92;9.63;;;;;;;18.86;77.76;101632.25;4990283;28;20081;-69
2023/07/06 08:08:43;;;;;;;19.95;10.07;;;;;;;19.00;77.66;101630.94;4989610;28;20034;-70
2023/07/06 08:11:11;;;;;;;17.55;9.07;;;;;;;19.24;76.23;101629.59;4988941;28;20108;-71
2023/07/06 08:13:36;;;;;;;22.02;10.43;;;;;;;19.65;74.20;101638.53;5004299;28;20073;-70
2023/07/06 08:16:04;;;;;;;20.50;11.20;;;;;;;19.86;71.58;101631.78;4989800;28;20073;-69
2023/07/06 08:18:31;;;;;;;19.55;11.00;;;;;;;19.97;72.61;101640.88;4989596;28;20493;-70
2023/07/06 08:20:57;;;;;;;20.58;10.95;;;;;;;20.41;73.09;101639.16;4990030;28;20066;-70
2023/07/06 08:23:24;;;;;;;21.17;10.60;;;;;;;20.82;71.55;101637.69;4989266;28;20073;-70
2023/07/06 08:25:54;;;;;;;18.10;10.68;;;;;;;21.27;71.10;101647.78;4988540;28;20053;-70
2023/07/06 08:28:31;;;;;;;21.65;11.77;;;;;;;21.26;68.65;101646.00;4989953;28;20545;-70
2023/07/06 08:30:58;;;;;;;21.60;10.65;;;;;;;21.08;67.89;101647.97;4989475;28;20517;-70
2023/07/06 08:33:25;;;;;;;23.48;11.90;;;;;;;20.73;66.01;101646.09;4989747;28;20401;-69
2023/07/06 08:35:50;;;;;;;20.13;11.98;;;;;;;20.71;70.78;101639.84;4989424;28;20377;-69
2023/07/06 08:38:16;;;;;;;21.30;12.05;;;;;;;20.81;70.47;101644.28;4989265;28;20053;-70
2023/07/06 08:40:47;;;;;;;23.30;11.90;;;;;;;21.11;67.41;101650.41;4989134;28;20042;-70
2023/07/06 08:43:19;;;;;;;19.30;11.52;;;;;;;21.48;68.41;101652.09;4989431;28;20038;-69
2023/07/06 08:45:46;;;;;;;;;;;;;;;21.63;70.20;101664.31;4989922;28;20038;-70
2023/07/06 08:48:18;;;;;;;21.35;9.68;;;;;;;21.53;66.24;101658.00;4989365;28;19910;-70
2023/07/06 08:50:51;;;;;;;14.30;8.93;;;;;;;21.76;65.29;101659.19;4992131;28;20490;-70
2023/07/06 08:53:18;;;;;;;18.65;8.80;;;;;;;22.03;64.00;101649.81;4989320;28;20042;-70
2023/07/06 08:55:45;;;;;;;12.23;7.57;;;;;;;22.46;64.78;101661.78;5004255;28;20033;-70
2023/07/06 08:58:24;;;;;;;15.10;8.63;;;;;;;22.44;63.94;101666.63;4989112;28;20525;-70
2023/07/06 09:00:51;;;;;;;21.10;8.73;;;;;;;22.45;63.55;101664.72;5004005;28;20511;-70
2023/07/06 09:03:17;;;;;;;16.58;8.05;;;;;;;22.55;62.71;101654.34;4989812;28;20473;-70
2023/07/06 09:05:46;;;;;;;14.93;9.10;;;;;;;22.56;63.72;101669.94;4988576;28;20026;-70
2023/07/06 09:08:15;;;;;;;17.17;8.57;;;;;;;22.75;62.78;101666.88;4988635;28;20478;-70
2023/07/06 09:10:41;;;;;;;18.10;8.77;;;;;;;22.87;59.47;101664.66;4995993;28;20037;-69
2023/07/06 09:13:27;;;;;;;18.33;8.93;;;;;;;23.09;61.14;101669.56;5004143;28;20104;-69
2023/07/06 09:16:00;;;;;;;15.30;8.82;;;;;;;23.21;60.15;101672.84;4987993;28;20522;-70
2023/07/06 09:18:26;;;;;;;17.73;8.05;;;;;;;23.36;58.14;101667.44;4988579;28;20181;-70
2023/07/06 09:20:53;;;;;;;13.82;7.93;;;;;;;23.20;58.46;101668.34;4988888;28;20505;-70
2023/07/06 09:23:19;;;;;;;16.23;9.05;;;;;;;22.89;57.91;101662.59;4988150;28;20125;-69
2023/07/06 09:25:46;;;;;;;12.98;7.45;;;;;;;22.81;59.75;101668.13;4988899;28;20113;-69
2023/07/06 09:28:18;;;;;;;12.05;6.97;;;;;;;22.87;61.40;101671.06;5000690;28;20034;-70
2023/07/06 09:30:45;;;;;;;12.43;7.40;;;;;;;22.95;63.75;101666.59;4988891;28;20033;-69
2023/07/06 09:33:25;;;;;;;11.35;5.85;;;;;;;23.28;61.49;101665.56;4988840;28;20040;-69
2023/07/06 09:35:53;;;;;;;10.93;5.82;;;;;;;23.39;57.63;101667.09;4988444;28;20038;-69
2023/07/06 09:38:19;;;;;;;16.38;5.43;;;;;;;23.55;57.70;101663.44;4987926;28;20509;-69
2023/07/06 09:40:46;;;;;;;13.30;5.15;;;;;;;23.41;60.23;101673.38;5002399;28;20038;-70
2023/07/06 09:43:29;;;;;;;9.70;4.30;;;;;;;23.22;60.30;101670.94;4987705;28;20034;-69
2023/07/06 09:45:57;;;;;;;11.20;4.97;;;;;;;22.82;58.25;101680.94;4987639;28;20521;-70
2023/07/06 09:48:36;;;;;;;14.32;5.40;;;;;;;22.54;59.15;101677.59;4987744;28;20038;-69
2023/07/06 09:51:13;;;;;;;10.45;4.60;;;;;;;22.24;60.00;101677.13;4987293;28;20486;-69
2023/07/06 09:53:49;;;;;;;10.98;4.70;;;;;;;21.79;61.35;101674.63;4987326;28;20346;-69
2023/07/06 09:56:15;;;;;;;14.20;4.50;;;;;;;21.56;62.58;101672.41;4987263;28;20153;-69
2023/07/06 09:58:42;;;;;;;14.25;4.95;;;;;;;21.43;62.64;101683.03;4995497;28;20029;-69
2023/07/06 10:01:17;;;;;;;10.45;4.60;;;;;;;21.43;63.29;101679.41;5006294;28;20081;-69
2023/07/06 10:04:00;;;;;;;14.98;5.10;;;;;;;21.67;63.13;101667.63;5006887;28;20038;-70
2023/07/06 10:06:44;;;;;;;13.85;4.80;;;;;;;21.87;63.87;101670.00;4993611;28;20049;-69
2023/07/06 10:09:22;;;;;;;9.25;4.03;;;;;;;22.32;65.02;101673.53;4986915;28;20042;-70
2023/07/06 10:11:52;;;;;;;13.48;4.55;;;;;;;22.67;61.92;101669.66;4987305;28;20103;-69
2023/07/06 10:14:25;;;;;;;12.48;4.32;;;;;;;22.95;59.37;101666.59;5000473;28;20045;-69
2023/07/06 10:17:14;;;;;;;10.32;3.58;;;;;;;23.21;57.33;101661.72;5006483;28;20034;-69
2023/07/06 10:19:46;;;;;;;11.95;3.33;;;;;;;23.64;58.51;101659.63;5006495;28;20556;-69
2023/07/06 10:22:47;;;;;;;9.32;3.28;;;;;;;23.98;60.18;101655.72;4987142;28;20050;-69
2023/07/06 10:25:33;;;;;;;6.80;3.13;;;;;;;24.48;59.72;101663.72;4986894;28;20035;-69
2023/07/06 10:28:16;;;;;;;6.22;2.70;;;;;;;24.82;55.45;101654.97;4986266;28;21003;-69
2023/07/06 10:30:51;;;;;;;9.55;3.38;;;;;;;24.93;52.05;101662.00;4987434;28;20053;-69
2023/07/06 10:33:33;;;;;;;8.55;2.70;;;;;;;25.03;54.63;101653.41;4987640;28;20442;-69
2023/07/06 10:35:59;;;;;;;;;;;;;;;25.18;51.93;101657.13;4987839;28;20049;-69
2023/07/06 10:38:25;;;;;;;8.05;2.83;;;;;;;25.06;52.92;101653.91;4949278;28;1089021;-69
2023/07/06 10:41:12;;;;;;;9.40;2.65;;;;;;;25.23;49.90;101657.47;5002308;28;20045;-70
2023/07/06 10:43:40;;;;;;;7.57;2.50;;;;;;;25.68;46.20;101656.47;5000117;28;20138;-70
2023/07/06 10:46:35;;;;;;;10.70;2.30;;;;;;;25.98;50.93;101655.66;4987834;28;20426;-70
2023/07/06 10:49:21;;;;;;;5.80;2.22;;;;;;;26.25;50.22;101659.66;5000222;28;20070;-69
2023/07/06 10:51:55;;;;;;;5.38;2.10;;;;;;;26.15;49.29;101652.44;4988111;28;20038;-69
2023/07/06 10:54:21;;;;;;;9.40;2.50;;;;;;;25.85;45.95;101650.75;4987360;28;20042;-69
2023/07/06 10:57:00;;;;;;;7.07;2.08;;;;;;;25.57;45.27;101656.09;4988336;28;20104;-69
2023/07/06 10:59:52;;;;;;;5.88;2.05;;;;;;;25.90;47.48;101659.41;4987616;28;20056;-69
2023/07/06 11:02:40;;;;;;;8.63;2.03;;;;;;;25.78;48.14;101652.56;4987986;28;20070;-70
2023/07/06 11:05:10;;;;;;;8.68;2.25;;;;;;;25.68;48.49;101664.81;4988463;28;20537;-69
2023/07/06 11:07:51;;;;;;;8.13;2.88;;;;;;;25.43;48.87;101664.22;4986892;28;20061;-70
2023/07/06 11:10:28;;;;;;;5.93;2.45;;;;;;;25.36;49.46;101665.16;4987666;28;20145;-69
2023/07/06 11:13:15;;;;;;;5.82;1.88;;;;;;;25.31;47.54;101679.63;4987720;28;20126;-69
2023/07/06 11:15:43;;;;;;;8.82;2.55;;;;;;;25.15;49.31;101674.22;4987326;28;20131;-69
2023/07/06 11:18:11;;;;;;;4.40;2.05;;;;;;;25.14;48.14;101678.94;4987876;28;20073;-69
2023/07/06 11:20:38;;;;;;;6.43;2.30;;;;;;;24.89;48.41;101680.97;4993274;28;20418;-69
2023/07/06 11:23:04;;;;;;;7.18;2.80;;;;;;;24.53;50.49;101682.59;5006957;28;20038;-68
2023/07/06 11:25:31;;;;;;;7.07;2.22;;;;;;;24.54;51.53;101681.59;5006631;28;20049;-69
2023/07/06 11:28:05;;;;;;;6.20;2.40;;;;;;;24.40;52.13;101680.44;4991052;28;20030;-68